createdAt,value
2023-01-29T00:00:14.929Z,54.10
2023-01-29T00:02:42.763Z,52.72
2023-01-29T00:05:26.469Z,48.05
2023-01-29T00:07:56.900Z,51.30
2023-01-29T00:10:27.752Z,55.75
2023-01-29T00:12:55.677Z,48.00
2023-01-29T00:15:22.905Z,49.22
2023-01-29T00:17:50.170Z,48.25
2023-01-29T00:20:18.639Z,49.92
2023-01-29T00:22:46.101Z,56.00
2023-01-29T00:25:13.384Z,50.63
2023-01-29T00:27:40.740Z,57.60
2023-01-29T00:30:19.306Z,51.80
2023-01-29T00:32:46.983Z,42.58
2023-01-29T00:35:14.289Z,43.28
2023-01-29T00:37:41.718Z,47.20
2023-01-29T00:40:09.874Z,50.20
2023-01-29T00:42:55.225Z,54.47
2023-01-29T00:45:22.493Z,50.17
2023-01-29T00:47:50.635Z,49.97
2023-01-29T00:50:18.800Z,50.15
2023-01-29T00:52:46.322Z,50.58
2023-01-29T00:55:13.992Z,48.10
2023-01-29T00:57:41.788Z,54.63
2023-01-29T01:00:14.810Z,51.25
2023-01-29T01:03:21.347Z,50.83
2023-01-29T01:05:48.669Z,54.97
2023-01-29T01:08:34.898Z,53.28
2023-01-29T01:11:04.503Z,50.92
2023-01-29T01:13:35.030Z,53.70
2023-01-29T01:16:02.839Z,51.47
2023-01-29T01:18:31.252Z,47.92
2023-01-29T01:20:59.605Z,58.70
2023-01-29T01:23:27.951Z,48.92
2023-01-29T01:25:55.796Z,52.92
2023-01-29T01:28:23.266Z,58.65
2023-01-29T01:30:50.594Z,53.67
2023-01-29T01:33:18.461Z,59.08
2023-01-29T01:35:45.781Z,54.83
2023-01-29T01:38:13.138Z,55.88
2023-01-29T01:40:45.243Z,49.75
2023-01-29T01:43:13.471Z,53.45
2023-01-29T01:45:40.986Z,52.00
2023-01-29T01:48:26.120Z,51.45
2023-01-29T01:51:00.769Z,55.60
2023-01-29T01:53:34.966Z,51.53
2023-01-29T01:56:07.167Z,60.97
2023-01-29T01:58:50.642Z,53.80
2023-01-29T02:01:18.938Z,51.63
2023-01-29T02:04:13.387Z,56.05
2023-01-29T02:07:00.318Z,50.25
2023-01-29T02:09:38.698Z,52.70
2023-01-29T02:12:09.541Z,52.55
2023-01-29T02:14:39.524Z,52.67
2023-01-29T02:17:12.494Z,52.90
2023-01-29T02:19:42.914Z,53.35
2023-01-29T02:22:29.239Z,48.08
2023-01-29T02:25:23.913Z,46.38
2023-01-29T02:28:01.045Z,49.03
2023-01-29T02:30:43.372Z,55.08
2023-01-29T02:33:22.831Z,49.65
2023-01-29T02:35:54.421Z,46.85
2023-01-29T02:38:43.817Z,51.88
2023-01-29T02:41:28.311Z,44.22
2023-01-29T02:44:01.760Z,45.42
2023-01-29T02:46:45.553Z,47.50
2023-01-29T02:49:34.390Z,46.15
2023-01-29T02:52:16.039Z,52.90
2023-01-29T02:54:51.707Z,44.17
2023-01-29T02:57:29.440Z,47.88
2023-01-29T03:00:34.094Z,46.53
2023-01-29T03:03:12.890Z,45.55
2023-01-29T03:05:45.765Z,44.67
2023-01-29T03:08:20.327Z,49.08
2023-01-29T03:10:55.019Z,51.17
2023-01-29T03:13:50.058Z,48.20
2023-01-29T03:16:23.559Z,45.33
2023-01-29T03:19:00.348Z,43.97
2023-01-29T03:22:01.864Z,47.28
2023-01-29T03:24:55.601Z,33.85
2023-01-29T03:27:55.757Z,30.08
2023-01-29T03:30:44.379Z,29.65
2023-01-29T03:33:32.985Z,29.13
2023-01-29T03:36:08.986Z,35.17
2023-01-29T03:38:37.222Z,37.40
2023-01-29T03:41:17.031Z,40.22
2023-01-29T03:44:02.244Z,36.72
2023-01-29T03:46:41.741Z,32.55
2023-01-29T03:49:41.909Z,35.83
2023-01-29T03:52:18.209Z,32.22
2023-01-29T03:55:01.320Z,28.27
2023-01-29T03:57:58.772Z,28.45
2023-01-29T04:00:32.441Z,31.50
2023-01-29T04:03:17.020Z,29.88
2023-01-29T04:05:51.920Z,32.28
2023-01-29T04:08:30.557Z,33.58
2023-01-29T04:11:06.809Z,33.00
2023-01-29T04:13:36.643Z,30.40
2023-01-29T04:16:08.307Z,33.55
2023-01-29T04:18:54.351Z,35.22
2023-01-29T04:21:32.850Z,35.17
2023-01-29T04:24:00.752Z,34.03
2023-01-29T04:26:28.080Z,33.65
2023-01-29T04:29:05.824Z,31.92
2023-01-29T04:31:43.518Z,33.47
2023-01-29T04:34:26.102Z,35.70
2023-01-29T04:37:23.156Z,31.38
2023-01-29T04:40:05.652Z,33.45
2023-01-29T04:45:22.748Z,35.90
2023-01-29T04:48:20.757Z,30.50
2023-01-29T04:51:08.444Z,38.58
2023-01-29T04:54:02.594Z,36.17
2023-01-29T04:56:44.901Z,34.95
2023-01-29T04:59:17.734Z,32.33
2023-01-29T05:01:45.550Z,24.70
2023-01-29T05:04:17.389Z,31.15
2023-01-29T05:09:17.562Z,26.92
2023-01-29T05:11:47.656Z,27.10
2023-01-29T05:14:18.344Z,25.83
2023-01-29T05:16:49.705Z,25.15
2023-01-29T05:19:17.983Z,29.27
2023-01-29T05:21:48.684Z,28.20
2023-01-29T05:24:17.764Z,30.67
2023-01-29T05:27:06.413Z,32.38
2023-01-29T05:29:34.640Z,32.03
2023-01-29T05:32:02.164Z,33.75
2023-01-29T05:34:29.559Z,32.30
2023-01-29T05:36:57.323Z,38.20
2023-01-29T05:39:24.630Z,41.28
2023-01-29T05:41:52.092Z,33.38
2023-01-29T05:44:20.470Z,33.17
2023-01-29T05:46:47.912Z,31.52
2023-01-29T05:49:17.897Z,25.80
2023-01-29T05:51:45.784Z,27.85
2023-01-29T05:54:13.564Z,27.38
2023-01-29T05:56:41.312Z,31.23
2023-01-29T05:59:08.785Z,28.40
2023-01-29T06:01:36.257Z,29.27
2023-01-29T06:04:03.642Z,28.60
2023-01-29T06:06:31.038Z,29.35
2023-01-29T06:08:58.671Z,35.25
2023-01-29T06:11:26.078Z,31.25
2023-01-29T06:13:54.768Z,28.20
2023-01-29T06:16:22.304Z,31.77
2023-01-29T06:18:49.584Z,37.17
2023-01-29T06:21:19.903Z,34.65
2023-01-29T06:23:47.483Z,35.40
2023-01-29T06:26:15.865Z,36.15
2023-01-29T06:28:45.134Z,35.97
2023-01-29T06:31:27.450Z,35.20
2023-01-29T06:33:59.839Z,38.42
2023-01-29T06:36:27.555Z,41.92
2023-01-29T06:38:54.813Z,36.03
2023-01-29T06:41:25.290Z,44.47
2023-01-29T06:43:52.680Z,39.30
2023-01-29T06:46:20.031Z,41.05
2023-01-29T06:48:47.477Z,40.60
2023-01-29T06:51:14.754Z,42.63
2023-01-29T06:53:44.016Z,42.50
2023-01-29T06:56:13.190Z,46.45
2023-01-29T06:58:40.502Z,44.17
2023-01-29T07:01:13.885Z,47.08
2023-01-29T07:03:51.293Z,53.67
2023-01-29T07:06:19.322Z,52.58
2023-01-29T07:08:46.647Z,51.60
2023-01-29T07:11:13.965Z,46.15
2023-01-29T07:13:41.306Z,51.95
2023-01-29T07:16:09.759Z,44.63
2023-01-29T07:18:37.416Z,47.67
2023-01-29T07:21:07.450Z,45.88
2023-01-29T07:23:35.251Z,56.80
2023-01-29T07:26:05.067Z,61.63
2023-01-29T07:28:36.444Z,54.13
2023-01-29T07:31:04.442Z,60.30
2023-01-29T07:33:32.346Z,116.22
2023-01-29T07:35:59.796Z,94.47
2023-01-29T07:38:27.508Z,78.20
2023-01-29T07:40:55.134Z,75.35
2023-01-29T07:43:24.867Z,64.30
2023-01-29T07:45:52.476Z,66.70
2023-01-29T07:48:19.880Z,55.28
2023-01-29T07:50:55.360Z,46.85
2023-01-29T07:53:23.159Z,54.28
2023-01-29T07:55:50.749Z,45.45
2023-01-29T07:58:18.094Z,52.95
2023-01-29T08:00:46.075Z,50.45
2023-01-29T08:03:16.599Z,51.85
2023-01-29T08:05:44.949Z,56.72
2023-01-29T08:08:12.567Z,73.20
2023-01-29T08:10:43.174Z,74.95
2023-01-29T08:13:11.057Z,80.80
2023-01-29T08:15:39.373Z,59.38
2023-01-29T08:18:06.835Z,63.95
2023-01-29T08:20:34.327Z,57.90
2023-01-29T08:23:10.195Z,57.40
2023-01-29T08:25:37.560Z,55.42
2023-01-29T08:28:05.410Z,59.65
2023-01-29T08:30:34.199Z,55.00
2023-01-29T08:33:04.117Z,62.00
2023-01-29T08:35:31.855Z,70.03
2023-01-29T08:38:01.617Z,57.38
2023-01-29T08:40:34.528Z,64.90
2023-01-29T08:43:06.190Z,55.58
2023-01-29T08:45:37.330Z,53.88
2023-01-29T08:48:05.080Z,56.53
2023-01-29T08:50:34.752Z,66.60
2023-01-29T08:53:07.609Z,57.15
2023-01-29T08:55:40.059Z,58.55
2023-01-29T08:58:09.480Z,61.80
2023-01-29T09:00:38.050Z,60.58
2023-01-29T09:03:07.903Z,60.65
2023-01-29T09:05:40.018Z,59.92
2023-01-29T09:08:09.848Z,60.38
2023-01-29T09:10:37.472Z,58.60
2023-01-29T09:13:05.060Z,60.67
2023-01-29T09:15:32.396Z,58.90
2023-01-29T09:18:03.909Z,63.03
2023-01-29T09:20:31.598Z,65.70
2023-01-29T09:22:59.304Z,67.38
2023-01-29T09:25:27.032Z,61.83
2023-01-29T09:27:55.021Z,60.60
2023-01-29T09:30:22.332Z,64.32
2023-01-29T09:32:54.263Z,68.28
2023-01-29T09:35:23.610Z,63.03
2023-01-29T09:37:51.974Z,60.60
2023-01-29T09:40:34.139Z,70.32
2023-01-29T09:45:36.931Z,63.80
2023-01-29T09:48:05.797Z,57.38
2023-01-29T09:50:39.856Z,66.35
2023-01-29T09:53:30.342Z,62.65
2023-01-29T09:56:06.099Z,58.83
2023-01-29T09:58:38.849Z,67.88
2023-01-29T10:01:42.573Z,70.85
2023-01-29T10:04:31.707Z,58.80
2023-01-29T10:07:20.353Z,65.95
2023-01-29T10:10:07.590Z,66.50
2023-01-29T10:12:48.415Z,64.82
2023-01-29T10:15:35.968Z,65.78
2023-01-29T10:18:30.249Z,61.05
2023-01-29T10:21:17.314Z,62.38
2023-01-29T10:23:57.544Z,69.38
2023-01-29T10:26:27.465Z,72.05
2023-01-29T10:28:57.323Z,64.35
2023-01-29T10:31:32.813Z,67.18
2023-01-29T10:34:07.194Z,64.13
2023-01-29T10:36:42.843Z,70.10
2023-01-29T10:39:21.459Z,81.40
2023-01-29T10:42:24.338Z,65.38
2023-01-29T10:45:22.293Z,56.67
2023-01-29T10:48:14.222Z,60.72
2023-01-29T10:50:57.641Z,61.95
2023-01-29T10:53:43.417Z,71.80
2023-01-29T10:56:31.421Z,61.45
2023-01-29T10:59:09.096Z,60.80
2023-01-29T11:01:36.532Z,58.47
2023-01-29T11:04:10.097Z,57.17
2023-01-29T11:06:37.891Z,57.88
2023-01-29T11:09:28.725Z,53.97
2023-01-29T11:12:14.101Z,54.38
2023-01-29T11:14:46.875Z,59.55
2023-01-29T11:17:19.923Z,49.08
2023-01-29T11:19:49.911Z,54.90
2023-01-29T11:22:20.348Z,48.63
2023-01-29T11:25:19.751Z,53.33
2023-01-29T11:27:50.568Z,45.25
2023-01-29T11:30:23.672Z,50.22
2023-01-29T11:33:07.579Z,51.30
2023-01-29T11:35:36.539Z,52.88
2023-01-29T11:38:25.387Z,46.83
2023-01-29T11:41:04.674Z,43.67
2023-01-29T11:43:32.769Z,45.05
2023-01-29T11:46:05.941Z,43.83
2023-01-29T11:48:41.062Z,44.28
2023-01-29T11:51:12.231Z,45.63
2023-01-29T11:53:43.451Z,41.10
2023-01-29T11:56:34.113Z,40.30
2023-01-29T11:59:04.537Z,43.83
2023-01-29T12:01:36.512Z,41.40
2023-01-29T12:06:47.891Z,50.97
2023-01-29T12:09:20.468Z,39.00
2023-01-29T12:11:48.165Z,44.15
2023-01-29T12:14:27.554Z,41.75
2023-01-29T12:17:16.409Z,40.13
2023-01-29T12:19:51.403Z,38.58
2023-01-29T12:22:21.700Z,36.58
2023-01-29T12:25:04.163Z,34.83
2023-01-29T12:27:46.159Z,48.50
2023-01-29T12:32:58.338Z,33.97
2023-01-29T12:35:33.414Z,35.72
2023-01-29T12:38:14.289Z,37.60
2023-01-29T12:40:59.785Z,39.70
2023-01-29T12:43:40.128Z,39.72
2023-01-29T12:46:21.494Z,40.70
2023-01-29T12:48:50.597Z,43.42
2023-01-29T12:51:24.211Z,39.08
2023-01-29T12:54:04.907Z,37.88
2023-01-29T12:56:37.059Z,47.88
2023-01-29T12:59:30.640Z,41.15
2023-01-29T13:02:30.164Z,47.40
2023-01-29T13:05:03.988Z,48.15
2023-01-29T13:07:40.170Z,41.15
2023-01-29T13:10:14.969Z,42.15
2023-01-29T13:12:54.438Z,40.75
2023-01-29T13:15:32.161Z,35.70
2023-01-29T13:18:26.396Z,33.78
2023-01-29T13:20:54.457Z,36.70
2023-01-29T13:23:29.448Z,29.38
2023-01-29T13:25:57.352Z,31.98
2023-01-29T13:28:27.061Z,39.00
2023-01-29T13:31:21.079Z,31.75
2023-01-29T13:34:10.913Z,29.08
2023-01-29T13:36:44.496Z,27.77
2023-01-29T13:39:33.722Z,26.33
2023-01-29T13:42:03.965Z,31.65
2023-01-29T13:44:40.032Z,31.13
2023-01-29T13:47:11.689Z,31.88
2023-01-29T13:49:46.939Z,28.17
2023-01-29T13:52:29.165Z,28.98
2023-01-29T13:55:02.459Z,32.00
2023-01-29T13:57:48.905Z,32.13
2023-01-29T14:00:22.663Z,29.52
2023-01-29T14:02:55.937Z,29.80
2023-01-29T14:05:32.194Z,21.30
2023-01-29T14:08:17.598Z,17.50
2023-01-29T14:10:45.529Z,26.33
2023-01-29T14:13:15.628Z,29.20
2023-01-29T14:15:42.922Z,27.40
2023-01-29T14:18:18.781Z,34.53
2023-01-29T14:20:49.514Z,26.88
2023-01-29T14:23:42.118Z,26.92
2023-01-29T14:26:20.250Z,25.02
2023-01-29T14:28:58.672Z,23.58
2023-01-29T14:31:29.844Z,25.40
2023-01-29T14:34:02.472Z,30.02
2023-01-29T14:36:40.024Z,28.05
2023-01-29T14:39:19.000Z,31.58
2023-01-29T14:41:46.820Z,29.05
2023-01-29T14:44:45.555Z,31.20
2023-01-29T14:47:43.248Z,30.80
2023-01-29T14:50:28.829Z,26.13
2023-01-29T14:53:16.449Z,27.55
2023-01-29T14:55:50.944Z,28.88
2023-01-29T14:58:35.769Z,30.35
2023-01-29T15:01:07.366Z,30.58
2023-01-29T15:03:41.794Z,27.52
2023-01-29T15:06:15.430Z,28.55
2023-01-29T15:08:51.047Z,32.22
2023-01-29T15:11:36.514Z,32.42
2023-01-29T15:14:24.620Z,35.85
2023-01-29T15:17:18.616Z,32.17
2023-01-29T15:19:48.405Z,29.52
2023-01-29T15:22:18.893Z,35.35
2023-01-29T15:24:48.355Z,28.63
2023-01-29T15:27:20.404Z,30.88
2023-01-29T15:29:56.277Z,31.33
2023-01-29T15:32:31.276Z,36.20
2023-01-29T15:35:00.394Z,35.80
2023-01-29T15:37:31.450Z,38.63
2023-01-29T15:40:00.367Z,37.13
2023-01-29T15:42:29.441Z,36.47
2023-01-29T15:44:56.791Z,34.10
2023-01-29T15:47:30.844Z,37.67
2023-01-29T15:49:58.426Z,36.17
2023-01-29T15:52:31.215Z,41.95
2023-01-29T15:55:05.637Z,41.72
2023-01-29T15:57:40.648Z,31.33
2023-01-29T16:00:18.344Z,33.85
2023-01-29T16:02:45.812Z,31.08
2023-01-29T16:05:39.686Z,34.53
2023-01-29T16:08:12.894Z,36.83
2023-01-29T16:10:42.603Z,38.50
2023-01-29T16:13:20.601Z,35.70
2023-01-29T16:16:04.181Z,31.60
2023-01-29T16:18:42.872Z,38.80
2023-01-29T16:21:30.439Z,37.58
2023-01-29T16:24:03.545Z,43.65
2023-01-29T16:26:44.199Z,35.70
2023-01-29T16:29:14.695Z,43.10
2023-01-29T16:31:44.393Z,39.75
2023-01-29T16:34:24.320Z,38.35
2023-01-29T16:36:54.663Z,40.20
2023-01-29T16:39:25.492Z,43.30
2023-01-29T16:42:20.304Z,43.53
2023-01-29T16:44:57.309Z,41.40
2023-01-29T16:47:33.853Z,48.88
2023-01-29T16:50:24.586Z,47.30
2023-01-29T16:52:58.136Z,50.03
2023-01-29T16:55:26.549Z,47.08
2023-01-29T16:57:56.050Z,46.03
2023-01-29T17:00:25.780Z,53.42
2023-01-29T17:03:00.850Z,61.38
2023-01-29T17:05:31.670Z,63.53
2023-01-29T17:08:00.161Z,60.83
2023-01-29T17:10:29.597Z,52.47
2023-01-29T17:12:58.515Z,44.30
2023-01-29T17:15:46.868Z,52.90
2023-01-29T17:18:22.308Z,57.33
2023-01-29T17:20:55.322Z,48.08
2023-01-29T17:23:23.367Z,52.15
2023-01-29T17:25:51.763Z,50.40
2023-01-29T17:28:19.335Z,48.63
2023-01-29T17:31:00.091Z,53.72
2023-01-29T17:33:33.298Z,60.45
2023-01-29T17:36:01.228Z,61.47
2023-01-29T17:38:28.598Z,57.28
2023-01-29T17:41:00.449Z,64.13
2023-01-29T17:43:28.550Z,65.28
2023-01-29T17:45:56.925Z,61.00
2023-01-29T17:48:26.362Z,57.80
2023-01-29T17:50:57.024Z,69.60
2023-01-29T17:53:26.558Z,61.80
2023-01-29T17:55:57.721Z,61.53
2023-01-29T17:58:27.289Z,58.53
2023-01-29T18:00:55.225Z,63.00
2023-01-29T18:03:22.967Z,69.55
2023-01-29T18:05:50.492Z,67.88
2023-01-29T18:08:26.974Z,66.78
2023-01-29T18:10:54.312Z,61.92
2023-01-29T18:13:22.299Z,61.15
2023-01-29T18:15:50.505Z,60.95
2023-01-29T18:18:22.874Z,65.60
2023-01-29T18:20:50.856Z,63.80
2023-01-29T18:23:18.265Z,66.07
2023-01-29T18:25:46.565Z,62.70
2023-01-29T18:28:17.947Z,68.07
2023-01-29T18:30:47.233Z,62.67
2023-01-29T18:33:16.468Z,67.30
2023-01-29T18:35:45.162Z,64.05
2023-01-29T18:38:12.974Z,57.38
2023-01-29T18:40:40.860Z,59.90
2023-01-29T18:43:08.917Z,55.92
2023-01-29T18:45:36.300Z,56.25
2023-01-29T18:48:03.784Z,63.45
2023-01-29T18:50:31.294Z,63.95
2023-01-29T18:52:58.866Z,63.35
2023-01-29T18:55:26.996Z,52.72
2023-01-29T18:58:33.664Z,58.75
2023-01-29T19:00:42.044Z,64.55
2023-01-29T19:03:10.564Z,44.35
2023-01-29T19:05:38.315Z,48.25
2023-01-29T19:08:06.373Z,50.97
2023-01-29T19:10:34.311Z,46.17
2023-01-29T19:13:02.219Z,45.50
2023-01-29T19:15:29.599Z,59.95
2023-01-29T19:17:56.920Z,54.95
2023-01-29T19:20:24.771Z,95.18
2023-01-29T19:22:52.009Z,95.53
2023-01-29T19:25:19.773Z,78.35
2023-01-29T19:27:47.649Z,59.58
2023-01-29T19:30:15.777Z,56.67
2023-01-29T19:32:43.052Z,63.05
2023-01-29T19:35:10.401Z,63.10
2023-01-29T19:37:38.161Z,70.20
2023-01-29T19:40:05.940Z,59.53
2023-01-29T19:42:35.447Z,56.40
2023-01-29T19:45:04.816Z,48.38
2023-01-29T19:47:33.656Z,44.90
2023-01-29T19:50:00.971Z,47.78
2023-01-29T19:52:51.432Z,50.90
2023-01-29T19:55:21.012Z,71.70
2023-01-29T19:57:52.165Z,74.78
2023-01-29T20:00:20.077Z,80.30
2023-01-29T20:02:47.926Z,82.72
2023-01-29T20:05:18.428Z,68.38
2023-01-29T20:07:46.455Z,56.60
2023-01-29T20:10:17.386Z,57.70
2023-01-29T20:12:46.043Z,53.65
2023-01-29T20:15:15.023Z,67.00
2023-01-29T20:17:45.529Z,58.13
2023-01-29T20:20:14.505Z,55.25
2023-01-29T20:22:42.851Z,42.15
2023-01-29T20:25:13.550Z,44.28
2023-01-29T20:27:41.686Z,45.85
2023-01-29T20:30:09.651Z,40.65
2023-01-29T20:32:37.393Z,41.85
2023-01-29T20:35:05.029Z,41.38
2023-01-29T20:37:32.422Z,50.50
2023-01-29T20:39:59.741Z,66.85
2023-01-29T20:42:27.239Z,63.20
2023-01-29T20:44:54.561Z,88.03
2023-01-29T20:47:22.244Z,85.47
2023-01-29T20:49:49.571Z,75.10
2023-01-29T20:52:17.497Z,70.10
2023-01-29T20:54:44.887Z,76.93
2023-01-29T20:57:12.750Z,78.35
2023-01-29T20:59:40.221Z,67.05
2023-01-29T21:02:10.789Z,77.97
2023-01-29T21:04:38.114Z,69.03
2023-01-29T21:07:05.422Z,87.13
2023-01-29T21:09:33.330Z,89.43
2023-01-29T21:12:02.147Z,70.10
2023-01-29T21:14:29.421Z,55.08
2023-01-29T21:16:56.714Z,56.20
2023-01-29T21:19:24.442Z,44.83
2023-01-29T21:21:52.291Z,46.70
2023-01-29T21:24:19.932Z,59.25
2023-01-29T21:26:47.869Z,50.53
2023-01-29T21:29:16.207Z,55.30
2023-01-29T21:31:44.262Z,49.78
2023-01-29T21:34:12.054Z,57.97
2023-01-29T21:36:39.426Z,53.75
2023-01-29T21:39:16.661Z,53.28
2023-01-29T21:42:04.326Z,51.80
2023-01-29T21:44:33.560Z,50.70
2023-01-29T21:47:01.592Z,51.85
2023-01-29T21:49:29.215Z,48.30
2023-01-29T21:51:56.509Z,51.53
2023-01-29T21:54:23.870Z,50.17
2023-01-29T21:56:51.220Z,49.72
2023-01-29T21:59:19.950Z,48.42
2023-01-29T22:01:47.345Z,51.08
2023-01-29T22:04:15.726Z,52.83
2023-01-29T22:06:43.796Z,49.97
2023-01-29T22:09:11.058Z,52.45
2023-01-29T22:11:41.588Z,47.70
2023-01-29T22:14:09.052Z,39.55
2023-01-29T22:16:37.227Z,36.55
2023-01-29T22:19:04.789Z,39.67
2023-01-29T22:21:33.512Z,41.50
2023-01-29T22:24:02.771Z,44.28
2023-01-29T22:26:30.909Z,39.28
2023-01-29T22:28:58.378Z,39.55
2023-01-29T22:31:25.771Z,40.40
2023-01-29T22:33:53.474Z,46.25
2023-01-29T22:36:20.711Z,43.47
2023-01-29T22:38:48.356Z,44.60
2023-01-29T22:41:15.654Z,48.08
2023-01-29T22:43:44.059Z,43.67
2023-01-29T22:46:11.723Z,44.50
2023-01-29T22:48:38.989Z,46.00
2023-01-29T22:51:09.939Z,48.25
2023-01-29T22:53:40.629Z,51.15
2023-01-29T22:56:08.795Z,44.88
2023-01-29T22:58:38.030Z,44.78
2023-01-29T23:01:05.445Z,50.38
2023-01-29T23:03:34.122Z,47.90
2023-01-29T23:06:03.109Z,49.65
2023-01-29T23:08:32.780Z,50.63
2023-01-29T23:11:14.230Z,51.17
2023-01-29T23:13:53.287Z,51.33
2023-01-29T23:16:26.174Z,50.33
2023-01-29T23:18:55.256Z,54.22
2023-01-29T23:21:25.857Z,56.20
2023-01-29T23:23:55.286Z,50.17
2023-01-29T23:26:41.156Z,51.25
2023-01-29T23:29:09.038Z,55.38
2023-01-29T23:31:36.554Z,57.60
2023-01-29T23:34:03.930Z,53.15
2023-01-29T23:36:31.624Z,50.35
2023-01-29T23:38:58.865Z,53.53
2023-01-29T23:41:26.309Z,55.67
2023-01-29T23:43:53.795Z,56.00
2023-01-29T23:46:21.224Z,49.05
2023-01-29T23:48:48.624Z,51.92
2023-01-29T23:51:16.851Z,59.30
2023-01-29T23:53:44.529Z,53.00
2023-01-29T23:56:12.105Z,50.47
2023-01-29T23:58:39.510Z,49.28
